createdAt,value
2023-10-01T00:02:12.798Z,8.67
2023-10-01T00:07:18.469Z,8.58
2023-10-01T00:12:25.455Z,8.53
2023-10-01T00:17:33.312Z,8.45
2023-10-01T00:22:39.099Z,8.43
2023-10-01T00:27:44.410Z,8.39
2023-10-01T00:32:51.116Z,8.53
2023-10-01T00:37:56.870Z,8.52
2023-10-01T00:43:04.918Z,8.47
2023-10-01T00:48:15.742Z,8.38
2023-10-01T00:53:22.761Z,8.27
2023-10-01T00:58:28.460Z,8.31
2023-10-01T01:03:35.957Z,8.43
2023-10-01T01:09:12.471Z,8.45
2023-10-01T01:14:20.158Z,8.32
2023-10-01T01:19:25.522Z,8.28
2023-10-01T01:24:31.758Z,8.25
2023-10-01T01:29:44.236Z,8.40
2023-10-01T01:34:50.144Z,8.42
2023-10-01T01:39:56.372Z,8.35
2023-10-01T01:45:40.363Z,8.46
2023-10-01T01:50:46.119Z,8.42
2023-10-01T01:55:57.855Z,8.35
2023-10-01T02:01:11.493Z,8.27
2023-10-01T02:06:30.771Z,8.29
2023-10-01T02:11:37.534Z,8.24
2023-10-01T02:16:44.548Z,8.20
2023-10-01T02:21:57.540Z,8.19
2023-10-01T02:27:05.878Z,8.13
2023-10-01T02:32:14.077Z,8.17
2023-10-01T02:37:33.330Z,8.28
2023-10-01T02:42:39.002Z,8.22
2023-10-01T02:48:06.022Z,8.09
2023-10-01T02:53:12.589Z,8.16
2023-10-01T02:58:34.283Z,8.04
2023-10-01T03:03:41.047Z,8.10
2023-10-01T03:08:51.496Z,8.32
2023-10-01T03:14:07.881Z,8.70
2023-10-01T03:19:43.801Z,8.93
2023-10-01T03:24:49.336Z,9.10
2023-10-01T03:30:29.944Z,9.09
2023-10-01T03:35:37.971Z,9.47
2023-10-01T03:41:10.141Z,9.97
2023-10-01T03:46:22.755Z,10.60
2023-10-01T03:51:56.137Z,11.10
2023-10-01T03:57:02.041Z,11.69
2023-10-01T04:02:28.918Z,12.27
2023-10-01T04:07:47.357Z,12.70
2023-10-01T04:12:58.219Z,13.29
2023-10-01T04:18:17.874Z,14.13
2023-10-01T04:23:33.143Z,14.34
2023-10-01T04:28:49.149Z,14.53
2023-10-01T04:33:56.855Z,14.87
2023-10-01T04:39:02.224Z,15.42
2023-10-01T04:44:16.587Z,15.93
2023-10-01T04:49:45.292Z,16.15
2023-10-01T04:54:51.468Z,16.86
2023-10-01T04:59:59.945Z,17.39
2023-10-01T05:05:13.750Z,18.28
2023-10-01T05:10:19.728Z,19.46
2023-10-01T05:15:29.104Z,20.34
2023-10-01T05:20:36.065Z,21.15
2023-10-01T05:25:48.846Z,21.46
2023-10-01T05:31:02.623Z,21.99
2023-10-01T05:36:08.445Z,21.96
2023-10-01T05:41:18.754Z,22.31
2023-10-01T05:46:24.775Z,22.09
2023-10-01T05:51:46.397Z,21.06
2023-10-01T05:56:58.341Z,20.41
2023-10-01T06:02:04.152Z,20.38
2023-10-01T06:07:10.270Z,20.21
2023-10-01T06:12:21.426Z,20.23
2023-10-01T06:17:32.995Z,20.15
2023-10-01T06:22:38.623Z,19.92
2023-10-01T06:27:45.581Z,19.87
2023-10-01T06:32:52.315Z,19.95
2023-10-01T06:37:57.803Z,19.79
2023-10-01T06:43:03.939Z,19.88
2023-10-01T06:48:18.913Z,19.87
2023-10-01T06:53:45.996Z,19.85
2023-10-01T06:59:07.811Z,20.03
2023-10-01T07:04:13.727Z,19.96
2023-10-01T07:09:37.007Z,19.98
2023-10-01T07:14:52.691Z,20.17
2023-10-01T07:20:01.511Z,20.30
2023-10-01T07:25:31.609Z,20.52
2023-10-01T07:31:05.607Z,20.38
2023-10-01T07:36:13.141Z,20.60
2023-10-01T07:41:19.029Z,20.64
2023-10-01T07:46:24.893Z,20.58
2023-10-01T07:51:40.417Z,20.43
2023-10-01T07:56:59.828Z,20.72
2023-10-01T08:02:23.099Z,20.69
2023-10-01T08:07:32.561Z,20.78
2023-10-01T08:12:41.137Z,20.67
2023-10-01T08:17:47.035Z,20.89
2023-10-01T08:23:12.016Z,20.94
2023-10-01T08:28:17.457Z,20.91
2023-10-01T08:33:27.915Z,21.00
2023-10-01T08:38:40.918Z,21.07
2023-10-01T08:43:46.811Z,21.13
2023-10-01T08:48:52.620Z,21.13
2023-10-01T08:54:18.526Z,21.16
2023-10-01T08:59:27.551Z,21.16
2023-10-01T09:04:50.325Z,21.09
2023-10-01T09:10:07.089Z,20.94
2023-10-01T09:15:33.258Z,21.01
2023-10-01T09:20:44.169Z,21.06
2023-10-01T09:26:04.898Z,21.05
2023-10-01T09:31:41.729Z,21.10
2023-10-01T09:36:47.764Z,21.19
2023-10-01T09:41:55.588Z,21.13
2023-10-01T09:47:14.900Z,21.24
2023-10-01T09:52:52.374Z,21.07
2023-10-01T09:57:58.612Z,21.11
2023-10-01T10:03:05.896Z,21.12
2023-10-01T10:08:24.885Z,21.21
2023-10-01T10:13:50.367Z,21.28
2023-10-01T10:19:26.367Z,21.25
2023-10-01T10:24:35.049Z,21.31
2023-10-01T10:30:02.953Z,21.27
2023-10-01T10:35:19.111Z,21.25
2023-10-01T10:40:25.661Z,21.35
2023-10-01T10:45:50.695Z,21.47
2023-10-01T10:51:21.174Z,21.51
2023-10-01T10:56:39.520Z,21.54
2023-10-01T11:01:45.555Z,21.50
2023-10-01T11:07:06.368Z,21.53
2023-10-01T11:12:23.538Z,21.40
2023-10-01T11:17:29.060Z,21.45
2023-10-01T11:22:34.516Z,21.48
2023-10-01T11:27:49.238Z,21.47
2023-10-01T11:33:16.677Z,21.49
2023-10-01T11:38:22.454Z,21.52
2023-10-01T11:43:29.803Z,21.56
2023-10-01T11:48:41.103Z,21.40
2023-10-01T11:54:26.910Z,21.42
2023-10-01T11:59:34.671Z,21.42
2023-10-01T12:04:53.990Z,21.41
2023-10-01T12:09:59.756Z,21.42
2023-10-01T12:15:25.373Z,21.41
2023-10-01T12:20:30.913Z,21.29
2023-10-01T12:25:50.931Z,21.25
2023-10-01T12:31:24.241Z,21.23
2023-10-01T12:36:45.943Z,21.20
2023-10-01T12:41:55.435Z,20.98
2023-10-01T12:47:04.250Z,21.07
2023-10-01T12:52:11.048Z,20.91
2023-10-01T12:57:25.959Z,20.88
2023-10-01T13:02:46.848Z,20.79
2023-10-01T13:07:54.585Z,20.72
2023-10-01T13:13:05.874Z,20.59
2023-10-01T13:18:16.391Z,20.55
2023-10-01T13:23:27.615Z,20.13
2023-10-01T13:28:49.646Z,20.29
2023-10-01T13:34:23.645Z,20.25
2023-10-01T13:39:39.104Z,20.17
2023-10-01T13:45:04.035Z,20.04
2023-10-01T13:50:32.475Z,19.96
2023-10-01T13:56:08.766Z,19.81
2023-10-01T14:01:34.037Z,19.60
2023-10-01T14:06:59.415Z,19.40
2023-10-01T14:12:05.066Z,19.12
2023-10-01T14:17:39.419Z,18.97
2023-10-01T14:22:54.444Z,18.78
2023-10-01T14:28:02.832Z,18.56
2023-10-01T14:33:26.969Z,18.24
2023-10-01T14:39:03.116Z,17.98
2023-10-01T14:44:09.523Z,17.58
2023-10-01T14:49:15.108Z,17.03
2023-10-01T14:54:20.911Z,16.65
2023-10-01T14:59:34.139Z,16.27
2023-10-01T15:04:40.076Z,16.01
2023-10-01T15:09:45.496Z,15.73
2023-10-01T15:15:06.997Z,15.27
2023-10-01T15:20:45.835Z,15.04
2023-10-01T15:25:51.260Z,14.76
2023-10-01T15:30:56.744Z,14.40
2023-10-01T15:36:08.459Z,14.17
2023-10-01T15:41:14.956Z,14.04
2023-10-01T15:46:20.490Z,13.87
2023-10-01T15:51:28.931Z,13.65
2023-10-01T15:56:34.880Z,13.56
2023-10-01T16:01:52.829Z,13.37
2023-10-01T16:07:05.889Z,13.18
2023-10-01T16:12:15.902Z,13.17
2023-10-01T16:17:21.606Z,12.94
2023-10-01T16:22:29.462Z,12.81
2023-10-01T16:27:35.418Z,12.53
2023-10-01T16:32:55.853Z,12.47
2023-10-01T16:38:05.332Z,12.49
2023-10-01T16:43:19.834Z,12.40
2023-10-01T16:48:31.264Z,12.13
2023-10-01T16:53:39.756Z,11.98
2023-10-01T16:58:47.248Z,11.85
2023-10-01T17:03:59.028Z,11.84
2023-10-01T17:09:09.682Z,11.74
2023-10-01T17:14:16.662Z,11.40
2023-10-01T17:19:35.597Z,11.30
2023-10-01T17:25:07.102Z,11.00
2023-10-01T17:30:20.063Z,11.15
2023-10-01T17:35:25.591Z,10.72
2023-10-01T17:40:31.150Z,10.94
2023-10-01T17:45:37.006Z,10.79
2023-10-01T17:50:43.038Z,10.79
2023-10-01T17:55:58.772Z,10.67
2023-10-01T18:01:04.877Z,10.54
2023-10-01T18:06:12.655Z,10.42
2023-10-01T18:11:20.034Z,10.39
2023-10-01T18:16:28.494Z,10.27
2023-10-01T18:21:40.137Z,10.22
2023-10-01T18:26:47.420Z,10.06
2023-10-01T18:31:53.412Z,10.03
2023-10-01T18:37:03.257Z,9.93
2023-10-01T18:42:09.032Z,9.93
2023-10-01T18:47:14.989Z,9.98
2023-10-01T18:52:22.183Z,9.90
2023-10-01T18:57:28.070Z,9.88
2023-10-01T19:02:34.114Z,9.77
2023-10-01T19:07:45.824Z,9.59
2023-10-01T19:12:51.299Z,9.43
2023-10-01T19:17:57.503Z,9.09
2023-10-01T19:23:03.056Z,9.47
2023-10-01T19:28:10.239Z,9.57
2023-10-01T19:33:16.088Z,9.53
2023-10-01T19:38:22.880Z,9.61
2023-10-01T19:43:28.452Z,9.68
2023-10-01T19:48:35.567Z,9.84
2023-10-01T19:53:41.848Z,9.76
2023-10-01T19:58:50.206Z,9.79
2023-10-01T20:03:57.274Z,9.76
2023-10-01T20:09:08.825Z,9.65
2023-10-01T20:14:20.137Z,9.53
2023-10-01T20:19:26.352Z,9.42
2023-10-01T20:24:31.991Z,9.20
2023-10-01T20:29:37.538Z,9.05
2023-10-01T20:35:09.101Z,8.79
2023-10-01T20:40:15.371Z,8.62
2023-10-01T20:45:25.540Z,8.60
2023-10-01T20:50:39.857Z,8.61
2023-10-01T20:55:46.183Z,8.64
2023-10-01T21:00:52.486Z,8.60
2023-10-01T21:05:58.046Z,8.44
2023-10-01T21:11:03.906Z,8.48
2023-10-01T21:16:09.459Z,8.33
2023-10-01T21:21:16.325Z,8.34
2023-10-01T21:26:25.585Z,8.36
2023-10-01T21:31:32.163Z,8.34
2023-10-01T21:36:40.557Z,8.45
2023-10-01T21:41:51.417Z,8.50
2023-10-01T21:47:22.357Z,8.41
2023-10-01T21:52:35.770Z,8.43
2023-10-01T21:57:43.847Z,8.35
2023-10-01T22:03:08.615Z,8.22
2023-10-01T22:08:29.271Z,8.18
2023-10-01T22:13:35.764Z,8.12
2023-10-01T22:18:42.031Z,8.01
2023-10-01T22:23:47.656Z,8.11
2023-10-01T22:29:03.131Z,8.11
2023-10-01T22:34:15.003Z,8.11
2023-10-01T22:39:28.900Z,8.28
2023-10-01T22:44:35.507Z,8.24
2023-10-01T22:49:42.025Z,8.23
2023-10-01T22:54:53.694Z,8.26
2023-10-01T22:59:59.177Z,8.23
2023-10-01T23:05:05.590Z,8.15
2023-10-01T23:10:28.180Z,8.21
2023-10-01T23:15:42.924Z,8.29
2023-10-01T23:20:53.831Z,8.27
2023-10-01T23:26:29.717Z,8.23
2023-10-01T23:31:37.000Z,8.07
2023-10-01T23:36:44.257Z,8.12
2023-10-01T23:41:54.462Z,8.07
2023-10-01T23:47:01.225Z,8.00
2023-10-01T23:52:06.888Z,8.02
2023-10-01T23:57:15.170Z,7.93
